createdAt,value
2022-08-19T00:02:04.192Z,25.50
2022-08-19T00:04:34.610Z,25.50
2022-08-19T00:07:01.491Z,25.50
2022-08-19T00:09:28.835Z,25.50
2022-08-19T00:11:56.584Z,25.50
2022-08-19T00:14:25.744Z,25.50
2022-08-19T00:16:55.502Z,25.50
2022-08-19T00:19:24.486Z,25.50
2022-08-19T00:21:52.288Z,25.50
2022-08-19T00:24:19.898Z,25.50
2022-08-19T00:26:46.995Z,25.50
2022-08-19T00:29:16.832Z,25.50
2022-08-19T00:31:44.592Z,25.50
2022-08-19T00:34:13.069Z,25.50
2022-08-19T00:36:41.258Z,25.50
2022-08-19T00:39:08.778Z,25.50
2022-08-19T00:41:35.826Z,25.50
2022-08-19T00:44:10.922Z,25.50
2022-08-19T00:46:40.123Z,25.50
2022-08-19T00:49:26.205Z,25.50
2022-08-19T00:51:57.189Z,25.50
2022-08-19T00:54:24.248Z,25.50
2022-08-19T00:56:58.467Z,25.50
2022-08-19T01:00:00.751Z,25.50
2022-08-19T01:02:13.437Z,25.50
2022-08-19T01:04:41.231Z,25.40
2022-08-19T01:07:08.599Z,25.50
2022-08-19T01:09:41.786Z,25.50
2022-08-19T01:12:09.801Z,25.40
2022-08-19T01:14:39.759Z,25.50
2022-08-19T01:17:09.037Z,25.40
2022-08-19T01:19:43.941Z,25.40
2022-08-19T01:22:35.889Z,25.40
2022-08-19T01:25:03.621Z,25.40
2022-08-19T01:27:43.708Z,25.40
2022-08-19T01:30:14.640Z,25.40
2022-08-19T01:32:41.696Z,25.40
2022-08-19T01:35:09.264Z,25.40
2022-08-19T01:37:52.374Z,25.40
2022-08-19T01:40:21.290Z,25.40
2022-08-19T01:42:50.081Z,25.30
2022-08-19T01:45:18.630Z,25.40
2022-08-19T01:47:51.594Z,25.40
2022-08-19T01:50:28.637Z,25.30
2022-08-19T01:53:02.254Z,25.30
2022-08-19T01:55:34.240Z,25.30
2022-08-19T01:58:04.216Z,25.30
2022-08-19T02:00:33.015Z,25.30
2022-08-19T02:03:00.161Z,25.30
2022-08-19T02:05:26.885Z,25.30
2022-08-19T02:07:53.657Z,25.30
2022-08-19T02:10:22.906Z,25.30
2022-08-19T02:12:50.605Z,25.30
2022-08-19T02:15:20.412Z,25.30
2022-08-19T02:17:47.521Z,25.30
2022-08-19T02:20:14.713Z,25.30
2022-08-19T02:22:43.345Z,25.30
2022-08-19T02:25:15.303Z,25.30
2022-08-19T02:27:42.919Z,25.30
2022-08-19T02:30:14.387Z,25.30
2022-08-19T02:32:44.523Z,25.20
2022-08-19T02:35:13.523Z,25.20
2022-08-19T02:37:59.929Z,25.20
2022-08-19T02:40:28.070Z,25.20
2022-08-19T02:42:55.275Z,25.20
2022-08-19T02:45:22.362Z,25.20
2022-08-19T02:47:49.093Z,25.20
2022-08-19T02:50:15.783Z,25.20
2022-08-19T02:52:42.523Z,25.20
2022-08-19T02:55:10.372Z,25.20
2022-08-19T02:57:37.094Z,25.20
2022-08-19T03:00:07.516Z,25.20
2022-08-19T03:02:34.308Z,25.20
2022-08-19T03:05:01.017Z,25.20
2022-08-19T03:07:27.691Z,25.20
2022-08-19T03:09:54.403Z,25.10
2022-08-19T03:12:21.177Z,25.20
2022-08-19T03:14:51.937Z,25.20
2022-08-19T03:17:18.663Z,25.20
2022-08-19T03:19:45.703Z,25.10
2022-08-19T03:22:12.505Z,25.10
2022-08-19T03:24:39.885Z,25.20
2022-08-19T03:27:06.589Z,25.10
2022-08-19T03:29:33.772Z,25.10
2022-08-19T03:32:09.951Z,25.10
2022-08-19T03:34:56.729Z,25.10
2022-08-19T03:37:24.585Z,25.10
2022-08-19T03:39:52.677Z,25.10
2022-08-19T03:42:32.880Z,25.10
2022-08-19T03:45:06.261Z,25.10
2022-08-19T03:47:33.296Z,25.10
2022-08-19T03:50:00.091Z,25.00
2022-08-19T03:52:26.815Z,25.10
2022-08-19T03:54:53.638Z,25.10
2022-08-19T03:57:20.359Z,25.00
2022-08-19T03:59:47.071Z,25.00
2022-08-19T04:02:14.310Z,25.00
2022-08-19T04:04:44.259Z,25.00
2022-08-19T04:07:13.846Z,25.00
2022-08-19T04:09:40.593Z,25.00
2022-08-19T04:12:07.705Z,25.00
2022-08-19T04:14:35.324Z,25.00
2022-08-19T04:17:07.407Z,25.00
2022-08-19T04:19:36.256Z,25.00
2022-08-19T04:22:03.627Z,25.00
2022-08-19T04:24:30.562Z,25.00
2022-08-19T04:26:57.540Z,25.00
2022-08-19T04:29:27.779Z,25.00
2022-08-19T04:31:56.659Z,25.00
2022-08-19T04:34:26.522Z,25.00
2022-08-19T04:36:54.780Z,25.00
2022-08-19T04:39:22.666Z,25.00
2022-08-19T04:42:08.845Z,24.90
2022-08-19T04:44:44.040Z,24.90
2022-08-19T04:47:13.143Z,24.90
2022-08-19T04:49:41.062Z,24.90
2022-08-19T04:52:09.442Z,24.90
2022-08-19T04:54:37.235Z,24.90
2022-08-19T04:57:07.685Z,24.90
2022-08-19T04:59:35.202Z,24.90
2022-08-19T05:02:02.191Z,24.90
2022-08-19T05:04:32.946Z,24.90
2022-08-19T05:07:01.961Z,24.90
2022-08-19T05:09:39.053Z,24.90
2022-08-19T05:12:16.711Z,24.90
2022-08-19T05:14:46.479Z,24.80
2022-08-19T05:17:31.208Z,24.80
2022-08-19T05:20:18.303Z,24.80
2022-08-19T05:22:47.304Z,24.80
2022-08-19T05:25:19.484Z,24.80
2022-08-19T05:27:46.471Z,24.80
2022-08-19T05:30:13.585Z,24.80
2022-08-19T05:32:40.973Z,24.80
2022-08-19T05:35:08.431Z,24.80
2022-08-19T05:37:35.180Z,24.80
2022-08-19T05:40:02.409Z,24.80
2022-08-19T05:42:29.485Z,24.80
2022-08-19T05:44:57.639Z,24.80
2022-08-19T05:47:26.404Z,24.80
2022-08-19T05:49:53.213Z,24.80
2022-08-19T05:52:25.543Z,24.80
2022-08-19T05:54:55.978Z,24.80
2022-08-19T05:57:23.430Z,24.80
2022-08-19T05:59:56.748Z,24.80
2022-08-19T06:02:26.617Z,24.80
2022-08-19T06:04:53.284Z,24.80
2022-08-19T06:07:20.541Z,24.80
2022-08-19T06:09:54.341Z,24.80
2022-08-19T06:12:31.603Z,24.80
2022-08-19T06:15:01.582Z,24.80
2022-08-19T06:17:31.473Z,24.70
2022-08-19T06:19:59.479Z,24.80
2022-08-19T06:22:27.038Z,24.70
2022-08-19T06:24:56.490Z,24.70
2022-08-19T06:27:23.845Z,24.70
2022-08-19T06:29:50.909Z,24.70
2022-08-19T06:32:19.621Z,24.70
2022-08-19T06:34:46.447Z,24.70
2022-08-19T06:37:13.782Z,24.70
2022-08-19T06:39:42.435Z,24.70
2022-08-19T06:42:12.598Z,24.70
2022-08-19T06:44:43.045Z,24.70
2022-08-19T06:47:14.582Z,24.70
2022-08-19T06:49:42.934Z,24.70
2022-08-19T06:52:13.722Z,24.70
2022-08-19T06:54:56.618Z,24.60
2022-08-19T06:57:27.805Z,24.60
2022-08-19T06:59:56.105Z,24.60
2022-08-19T07:02:27.236Z,24.50
2022-08-19T07:04:54.723Z,24.50
2022-08-19T07:07:23.169Z,24.50
2022-08-19T07:09:54.381Z,24.50
2022-08-19T07:12:30.391Z,24.50
2022-08-19T07:14:58.860Z,24.50
2022-08-19T07:17:26.770Z,24.40
2022-08-19T07:19:54.795Z,24.40
2022-08-19T07:22:24.137Z,24.40
2022-08-19T07:24:54.653Z,24.40
2022-08-19T07:27:25.192Z,24.40
2022-08-19T07:29:55.903Z,24.40
2022-08-19T07:32:23.200Z,24.40
2022-08-19T07:34:51.068Z,24.40
2022-08-19T07:37:18.048Z,24.40
2022-08-19T07:39:44.872Z,24.30
2022-08-19T07:42:13.345Z,24.30
2022-08-19T07:47:47.816Z,24.30
2022-08-19T07:49:59.492Z,24.30
2022-08-19T07:52:26.300Z,24.20
2022-08-19T07:54:53.089Z,24.30
2022-08-19T07:57:20.844Z,24.20
2022-08-19T07:59:47.584Z,24.20
2022-08-19T08:02:14.312Z,24.20
2022-08-19T08:04:59.824Z,24.20
2022-08-19T08:07:46.462Z,24.20
2022-08-19T08:10:21.363Z,24.20
2022-08-19T08:13:01.850Z,24.20
2022-08-19T08:15:42.209Z,24.20
2022-08-19T08:18:10.538Z,24.20
2022-08-19T08:20:37.290Z,24.20
2022-08-19T08:23:22.742Z,24.20
2022-08-19T08:25:50.040Z,24.20
2022-08-19T08:28:18.332Z,24.20
2022-08-19T08:30:47.317Z,24.20
2022-08-19T08:35:43.247Z,24.20
2022-08-19T08:38:09.931Z,24.20
2022-08-19T08:40:42.503Z,24.20
2022-08-19T08:43:33.430Z,24.20
2022-08-19T08:46:14.768Z,24.30
2022-08-19T08:49:34.473Z,24.20
2022-08-19T08:52:08.194Z,24.20
2022-08-19T08:54:48.878Z,24.20
2022-08-19T08:57:33.725Z,24.20
2022-08-19T09:00:15.690Z,24.20
2022-08-19T09:02:43.486Z,24.20
2022-08-19T09:05:16.774Z,24.20
2022-08-19T09:08:09.697Z,24.20
2022-08-19T09:10:45.909Z,24.20
2022-08-19T09:13:50.140Z,24.20
2022-08-19T09:16:27.938Z,24.20
2022-08-19T09:19:01.690Z,24.20
2022-08-19T09:21:30.374Z,24.20
2022-08-19T09:24:00.087Z,24.20
2022-08-19T09:26:47.154Z,24.20
2022-08-19T09:29:14.255Z,24.20
2022-08-19T09:31:41.207Z,24.20
2022-08-19T09:34:07.962Z,24.20
2022-08-19T09:36:54.831Z,24.20
2022-08-19T09:39:22.269Z,24.20
2022-08-19T09:41:50.907Z,24.20
2022-08-19T09:44:18.833Z,24.30
2022-08-19T09:46:47.949Z,24.30
2022-08-19T09:49:15.821Z,24.30
2022-08-19T09:51:50.819Z,24.30
2022-08-19T09:54:19.222Z,24.30
2022-08-19T09:56:51.419Z,24.30
2022-08-19T09:59:20.429Z,24.30
2022-08-19T10:01:47.348Z,24.30
2022-08-19T10:04:20.517Z,24.30
2022-08-19T10:06:51.811Z,24.30
2022-08-19T10:09:34.075Z,24.30
2022-08-19T10:12:05.051Z,24.30
2022-08-19T10:14:33.580Z,24.30
2022-08-19T10:17:04.726Z,24.30
2022-08-19T10:19:55.165Z,24.40
2022-08-19T10:22:25.695Z,24.40
2022-08-19T10:24:53.959Z,24.40
2022-08-19T10:27:20.773Z,24.40
2022-08-19T10:29:48.477Z,24.40
2022-08-19T10:32:15.382Z,24.40
2022-08-19T10:34:48.881Z,24.40
2022-08-19T10:37:23.947Z,24.40
2022-08-19T10:39:56.305Z,24.40
2022-08-19T10:42:23.284Z,24.40
2022-08-19T10:44:51.861Z,24.40
2022-08-19T10:47:25.993Z,24.50
2022-08-19T10:50:16.667Z,24.50
2022-08-19T10:52:49.466Z,24.50
2022-08-19T10:55:39.110Z,24.50
2022-08-19T10:58:14.177Z,24.40
2022-08-19T11:00:41.645Z,24.50
2022-08-19T11:03:09.534Z,24.50
2022-08-19T11:05:40.429Z,24.50
2022-08-19T11:08:17.659Z,24.50
2022-08-19T11:10:50.645Z,24.50
2022-08-19T11:13:17.516Z,24.60
2022-08-19T11:15:45.016Z,24.60
2022-08-19T11:18:13.238Z,24.60
2022-08-19T11:20:40.273Z,24.60
2022-08-19T11:23:07.432Z,24.70
2022-08-19T11:25:35.492Z,24.70
2022-08-19T11:28:02.219Z,24.70
2022-08-19T11:30:28.978Z,24.70
2022-08-19T11:32:55.672Z,24.70
2022-08-19T11:35:24.231Z,24.80
2022-08-19T11:37:51.105Z,24.80
2022-08-19T11:40:19.082Z,24.80
2022-08-19T11:42:58.034Z,24.90
2022-08-19T11:45:27.588Z,24.90
2022-08-19T11:47:56.886Z,24.90
2022-08-19T11:50:26.001Z,24.90
2022-08-19T11:52:57.365Z,24.90
2022-08-19T11:55:24.789Z,24.90
2022-08-19T11:57:51.506Z,25.00
2022-08-19T12:00:18.552Z,25.00
2022-08-19T12:02:45.433Z,25.00
2022-08-19T12:05:13.258Z,25.00
2022-08-19T12:07:41.480Z,25.00
2022-08-19T12:10:09.187Z,25.10
2022-08-19T12:12:41.359Z,25.00
2022-08-19T12:15:08.780Z,25.10
2022-08-19T12:17:35.515Z,25.10
2022-08-19T12:20:02.368Z,25.10
2022-08-19T12:22:29.094Z,25.10
2022-08-19T12:24:55.920Z,25.00
2022-08-19T12:27:32.373Z,25.00
2022-08-19T12:30:10.194Z,25.00
2022-08-19T12:32:37.776Z,25.00
2022-08-19T12:35:05.245Z,25.00
2022-08-19T12:37:33.175Z,25.00
2022-08-19T12:40:00.458Z,25.00
2022-08-19T12:42:27.733Z,25.00
2022-08-19T12:44:54.629Z,25.00
2022-08-19T12:47:21.986Z,25.10
2022-08-19T12:49:54.712Z,25.10
2022-08-19T12:52:24.493Z,25.10
2022-08-19T12:54:53.917Z,25.10
2022-08-19T12:57:33.015Z,25.10
2022-08-19T13:00:09.976Z,25.10
2022-08-19T13:02:38.875Z,25.10
2022-08-19T13:05:09.249Z,25.10
2022-08-19T13:07:36.649Z,25.10
2022-08-19T13:10:05.009Z,25.10
2022-08-19T13:12:34.052Z,25.10
2022-08-19T13:15:00.865Z,25.10
2022-08-19T13:17:33.080Z,25.10
2022-08-19T13:20:04.196Z,25.10
2022-08-19T13:22:34.140Z,25.20
2022-08-19T13:25:01.030Z,25.10
2022-08-19T13:27:27.793Z,25.10
2022-08-19T13:30:13.221Z,25.20
2022-08-19T13:32:58.691Z,25.10
2022-08-19T13:35:25.429Z,25.10
2022-08-19T13:37:52.801Z,25.10
2022-08-19T13:40:24.732Z,25.10
2022-08-19T13:42:54.399Z,25.10
2022-08-19T13:45:25.316Z,25.10
2022-08-19T13:47:59.226Z,25.10
2022-08-19T13:50:32.172Z,25.10
2022-08-19T13:52:59.261Z,25.10
2022-08-19T13:55:26.769Z,25.10
2022-08-19T13:57:55.994Z,25.10
2022-08-19T14:00:27.593Z,25.10
2022-08-19T14:02:56.690Z,25.10
2022-08-19T14:05:24.584Z,25.10
2022-08-19T14:07:51.506Z,25.10
2022-08-19T14:10:19.740Z,25.10
2022-08-19T14:12:46.380Z,25.10
2022-08-19T14:15:13.644Z,25.10
2022-08-19T14:17:42.702Z,25.10
2022-08-19T14:20:18.370Z,25.10
2022-08-19T14:22:46.978Z,25.10
2022-08-19T14:25:20.225Z,25.20
2022-08-19T14:27:47.869Z,25.10
2022-08-19T14:30:23.030Z,25.10
2022-08-19T14:32:49.793Z,25.20
2022-08-19T14:35:17.515Z,25.20
2022-08-19T14:37:46.403Z,25.10
2022-08-19T14:40:18.890Z,25.10
2022-08-19T14:42:45.670Z,25.10
2022-08-19T14:45:13.116Z,25.10
2022-08-19T14:47:46.915Z,25.10
2022-08-19T14:50:17.830Z,25.00
2022-08-19T14:52:48.805Z,25.10
2022-08-19T14:55:18.157Z,25.10
2022-08-19T14:57:48.856Z,25.00
2022-08-19T15:00:16.195Z,25.00
2022-08-19T15:02:45.210Z,25.00
2022-08-19T15:05:12.200Z,25.00
2022-08-19T15:07:39.285Z,25.10
2022-08-19T15:10:10.603Z,25.00
2022-08-19T15:12:39.481Z,25.10
2022-08-19T15:15:13.684Z,25.00
2022-08-19T15:17:54.849Z,25.00
2022-08-19T15:20:25.190Z,25.00
2022-08-19T15:22:52.122Z,25.00
2022-08-19T15:25:20.117Z,25.00
2022-08-19T15:27:47.772Z,25.10
2022-08-19T15:30:22.332Z,25.10
2022-08-19T15:32:53.475Z,25.10
2022-08-19T15:35:21.250Z,25.10
2022-08-19T15:37:52.467Z,25.00
2022-08-19T15:40:20.852Z,25.10
2022-08-19T15:42:49.866Z,25.00
2022-08-19T15:45:19.807Z,25.00
2022-08-19T15:47:49.017Z,25.00
2022-08-19T15:50:21.105Z,25.00
2022-08-19T15:52:50.003Z,25.00
2022-08-19T15:55:33.649Z,25.00
2022-08-19T15:58:28.399Z,25.00
2022-08-19T16:01:23.551Z,25.00
2022-08-19T16:04:11.333Z,25.00
2022-08-19T16:06:47.715Z,25.00
2022-08-19T16:09:16.753Z,25.00
2022-08-19T16:11:46.430Z,25.00
2022-08-19T16:14:16.152Z,25.00
2022-08-19T16:16:46.775Z,25.00
2022-08-19T16:19:16.744Z,25.00
2022-08-19T16:21:49.119Z,25.00
2022-08-19T16:24:18.308Z,25.00
2022-08-19T16:26:46.188Z,25.10
2022-08-19T16:29:13.582Z,25.00
2022-08-19T16:31:44.880Z,25.10
2022-08-19T16:34:13.078Z,25.10
2022-08-19T16:36:43.422Z,25.10
2022-08-19T16:39:12.090Z,25.10
2022-08-19T16:41:40.281Z,25.10
2022-08-19T16:44:09.721Z,25.10
2022-08-19T16:46:37.316Z,25.10
2022-08-19T16:49:05.347Z,25.10
2022-08-19T16:51:33.696Z,25.10
2022-08-19T16:54:01.200Z,25.10
2022-08-19T16:56:28.987Z,25.10
2022-08-19T16:58:56.322Z,25.10
2022-08-19T17:01:23.100Z,25.10
2022-08-19T17:03:52.025Z,25.00
2022-08-19T17:06:22.416Z,25.00
2022-08-19T17:08:50.781Z,25.00
2022-08-19T17:11:19.336Z,25.00
2022-08-19T17:13:50.809Z,25.00
2022-08-19T17:16:19.788Z,25.00
2022-08-19T17:18:46.528Z,25.00
2022-08-19T17:21:13.484Z,25.00
2022-08-19T17:23:43.595Z,25.00
2022-08-19T17:26:18.149Z,25.00
2022-08-19T17:28:51.013Z,25.00
2022-08-19T17:31:21.103Z,25.00
2022-08-19T17:33:48.506Z,25.10
2022-08-19T17:36:23.396Z,25.00
2022-08-19T17:38:52.829Z,25.10
2022-08-19T17:41:19.605Z,25.00
2022-08-19T17:43:46.446Z,25.00
2022-08-19T17:46:18.704Z,25.00
2022-08-19T17:48:52.121Z,25.10
2022-08-19T17:51:40.392Z,25.00
2022-08-19T17:54:11.167Z,25.00
2022-08-19T17:56:38.162Z,25.00
2022-08-19T17:59:06.251Z,25.00
2022-08-19T18:01:53.200Z,25.00
2022-08-19T18:04:21.321Z,25.00
2022-08-19T18:06:53.143Z,25.00
2022-08-19T18:09:24.034Z,25.00
2022-08-19T18:11:53.039Z,25.00
2022-08-19T18:14:32.051Z,25.00
2022-08-19T18:17:06.108Z,25.00
2022-08-19T18:19:42.226Z,25.00
2022-08-19T18:22:22.389Z,25.00
2022-08-19T18:24:49.208Z,25.00
2022-08-19T18:27:15.968Z,25.00
2022-08-19T18:29:43.396Z,25.00
2022-08-19T18:32:13.512Z,24.90
2022-08-19T18:34:45.900Z,24.90
2022-08-19T18:37:12.898Z,24.90
2022-08-19T18:39:58.244Z,25.00
2022-08-19T18:42:43.964Z,24.90
2022-08-19T18:45:31.523Z,24.90
2022-08-19T18:48:25.753Z,24.90
2022-08-19T18:50:56.105Z,24.90
2022-08-19T18:53:22.798Z,24.90
2022-08-19T18:55:53.814Z,24.90
2022-08-19T18:58:25.904Z,24.90
2022-08-19T19:00:56.909Z,24.90
2022-08-19T19:03:24.980Z,24.90
2022-08-19T19:05:52.758Z,24.90
2022-08-19T19:08:19.797Z,24.90
2022-08-19T19:10:47.687Z,24.90
2022-08-19T19:13:17.768Z,24.90
2022-08-19T19:15:44.648Z,24.90
2022-08-19T19:18:13.382Z,24.90
2022-08-19T19:20:43.081Z,24.80
2022-08-19T19:23:09.824Z,24.80
2022-08-19T19:25:44.817Z,24.80
2022-08-19T19:28:18.598Z,24.80
2022-08-19T19:30:45.314Z,24.80
2022-08-19T19:33:12.241Z,24.70
2022-08-19T19:35:40.975Z,24.70
2022-08-19T19:38:12.531Z,24.70
2022-08-19T19:40:39.250Z,24.70
2022-08-19T19:43:06.433Z,24.70
2022-08-19T19:45:33.531Z,24.70
2022-08-19T19:48:00.647Z,24.70
2022-08-19T19:50:30.243Z,24.70
2022-08-19T19:52:57.831Z,24.60
2022-08-19T19:55:26.488Z,24.70
2022-08-19T19:57:54.159Z,24.60
2022-08-19T20:00:21.910Z,24.70
2022-08-19T20:02:50.704Z,24.60
2022-08-19T20:05:21.433Z,24.60
2022-08-19T20:08:08.575Z,24.60
2022-08-19T20:10:35.466Z,24.60
2022-08-19T20:13:03.578Z,24.60
2022-08-19T20:15:32.188Z,24.60
2022-08-19T20:18:00.871Z,24.60
2022-08-19T20:20:28.062Z,24.60
2022-08-19T20:22:55.131Z,24.60
2022-08-19T20:25:22.463Z,24.60
2022-08-19T20:27:49.812Z,24.50
2022-08-19T20:30:19.872Z,24.60
2022-08-19T20:32:48.213Z,24.50
2022-08-19T20:35:16.363Z,24.50
2022-08-19T20:37:43.058Z,24.50
2022-08-19T20:40:13.885Z,24.50
2022-08-19T20:42:42.797Z,24.50
2022-08-19T20:45:21.594Z,24.50
2022-08-19T20:47:59.869Z,24.50
2022-08-19T20:50:30.120Z,24.50
2022-08-19T20:52:57.587Z,24.50
2022-08-19T20:55:25.290Z,24.50
2022-08-19T20:57:52.119Z,24.50
2022-08-19T21:00:19.233Z,24.40
2022-08-19T21:02:46.932Z,24.50
2022-08-19T21:05:14.792Z,24.50
2022-08-19T21:07:42.595Z,24.40
2022-08-19T21:10:09.387Z,24.40
2022-08-19T21:12:36.307Z,24.40
2022-08-19T21:15:03.675Z,24.40
2022-08-19T21:17:30.373Z,24.40
2022-08-19T21:19:57.138Z,24.40
2022-08-19T21:22:23.902Z,24.50
2022-08-19T21:24:50.741Z,24.50
2022-08-19T21:27:17.449Z,24.50
2022-08-19T21:29:44.183Z,24.50
2022-08-19T21:32:14.237Z,24.50
2022-08-19T21:34:46.290Z,24.50
2022-08-19T21:37:24.832Z,24.60
2022-08-19T21:39:52.841Z,24.60
2022-08-19T21:42:19.738Z,24.60
2022-08-19T21:44:46.457Z,24.60
2022-08-19T21:47:13.265Z,24.60
2022-08-19T21:49:40.108Z,24.70
2022-08-19T21:52:08.173Z,24.70
2022-08-19T21:54:37.703Z,24.70
2022-08-19T21:57:10.693Z,24.70
2022-08-19T21:59:41.124Z,24.70
2022-08-19T22:02:20.099Z,24.70
2022-08-19T22:04:48.622Z,24.80
2022-08-19T22:07:15.817Z,24.80
2022-08-19T22:09:44.290Z,24.80
2022-08-19T22:12:30.285Z,24.90
2022-08-19T22:14:57.958Z,24.90
2022-08-19T22:17:27.432Z,24.90
2022-08-19T22:19:55.952Z,24.80
2022-08-19T22:22:30.672Z,24.90
2022-08-19T22:25:11.509Z,24.90
2022-08-19T22:27:39.060Z,24.90
2022-08-19T22:30:10.136Z,24.90
2022-08-19T22:32:37.382Z,24.90
2022-08-19T22:35:08.589Z,24.90
2022-08-19T22:37:35.273Z,24.90
2022-08-19T22:40:05.477Z,24.90
2022-08-19T22:42:33.282Z,24.90
2022-08-19T22:45:00.422Z,24.90
2022-08-19T22:47:28.845Z,24.90
2022-08-19T22:49:58.848Z,24.90
2022-08-19T22:52:26.651Z,24.90
2022-08-19T22:54:56.953Z,24.90
2022-08-19T22:57:24.851Z,24.90
2022-08-19T22:59:52.739Z,24.90
2022-08-19T23:02:23.663Z,24.90
2022-08-19T23:04:51.549Z,25.00
2022-08-19T23:07:23.797Z,24.90
2022-08-19T23:09:51.184Z,25.00
2022-08-19T23:12:30.700Z,25.00
2022-08-19T23:15:06.371Z,25.00
2022-08-19T23:17:33.647Z,25.00
2022-08-19T23:20:00.422Z,25.00
2022-08-19T23:22:27.335Z,25.00
2022-08-19T23:24:56.025Z,25.00
2022-08-19T23:27:41.782Z,25.00
2022-08-19T23:30:27.347Z,25.00
2022-08-19T23:33:00.979Z,25.00
2022-08-19T23:35:32.996Z,25.00
2022-08-19T23:38:01.109Z,25.00
2022-08-19T23:40:28.337Z,25.00
2022-08-19T23:42:55.203Z,25.00
2022-08-19T23:45:24.697Z,25.00
2022-08-19T23:47:53.295Z,25.00
2022-08-19T23:50:24.785Z,25.00
2022-08-19T23:52:57.800Z,25.00
2022-08-19T23:55:28.005Z,25.00
2022-08-19T23:57:55.023Z,25.00
